sensor_id;sensor_type;location;lat;lon;timestamp;pressure;altitude;pressure_sealevel;temperature;humidity
34237;BME280;20501;45.956;13.632;2023-04-26T00:02:09;100282.84;;;12.28;71.56
34237;BME280;20501;45.956;13.632;2023-04-26T00:04:36;100280.69;;;11.95;68.56
34237;BME280;20501;45.956;13.632;2023-04-26T00:07:01;100280.84;;;11.93;65.68
34237;BME280;20501;45.956;13.632;2023-04-26T00:09:27;100276.06;;;11.87;72.26
34237;BME280;20501;45.956;13.632;2023-04-26T00:11:53;100274.19;;;13.28;67.28
34237;BME280;20501;45.956;13.632;2023-04-26T00:14:18;100272.34;;;11.88;65.71
34237;BME280;20501;45.956;13.632;2023-04-26T00:16:44;100277.53;;;13.22;67.35
34237;BME280;20501;45.956;13.632;2023-04-26T00:19:09;100277.97;;;13.52;66.19
34237;BME280;20501;45.956;13.632;2023-04-26T00:21:36;100274.47;;;13.16;66.68
34237;BME280;20501;45.956;13.632;2023-04-26T00:24:01;100275.75;;;13.55;65.88
34237;BME280;20501;45.956;13.632;2023-04-26T00:26:27;100280.34;;;13.04;67.03
34237;BME280;20501;45.956;13.632;2023-04-26T00:28:55;100282.09;;;13.81;65.16
34237;BME280;20501;45.956;13.632;2023-04-26T00:31:20;100283.63;;;13.91;64.54
34237;BME280;20501;45.956;13.632;2023-04-26T00:33:46;100284.41;;;11.40;66.78
34237;BME280;20501;45.956;13.632;2023-04-26T00:36:12;100288.28;;;12.62;69.48
34237;BME280;20501;45.956;13.632;2023-04-26T00:38:37;100290.53;;;13.61;65.77
34237;BME280;20501;45.956;13.632;2023-04-26T00:41:03;100289.50;;;13.45;65.67
34237;BME280;20501;45.956;13.632;2023-04-26T00:43:29;100291.75;;;13.75;64.83
34237;BME280;20501;45.956;13.632;2023-04-26T00:45:54;100293.63;;;13.74;65.09
34237;BME280;20501;45.956;13.632;2023-04-26T00:48:20;100305.00;;;14.03;63.96
34237;BME280;20501;45.956;13.632;2023-04-26T00:50:46;100293.94;;;13.55;61.08
34237;BME280;20501;45.956;13.632;2023-04-26T00:53:13;100296.53;;;12.79;65.99
34237;BME280;20501;45.956;13.632;2023-04-26T00:55:40;100303.56;;;12.19;69.42
34237;BME280;20501;45.956;13.632;2023-04-26T00:58:06;100300.25;;;13.29;65.92
34237;BME280;20501;45.956;13.632;2023-04-26T01:00:31;100296.16;;;11.85;63.77
34237;BME280;20501;45.956;13.632;2023-04-26T01:02:57;100301.75;;;11.83;68.29
34237;BME280;20501;45.956;13.632;2023-04-26T01:05:23;100302.91;;;12.43;63.86
34237;BME280;20501;45.956;13.632;2023-04-26T01:07:48;100300.22;;;11.35;72.60
34237;BME280;20501;45.956;13.632;2023-04-26T01:10:14;100303.38;;;11.76;70.62
34237;BME280;20501;45.956;13.632;2023-04-26T01:12:39;100298.34;;;10.89;67.83
34237;BME280;20501;45.956;13.632;2023-04-26T01:15:05;100312.88;;;11.80;69.67
34237;BME280;20501;45.956;13.632;2023-04-26T01:17:31;100315.94;;;10.56;70.07
34237;BME280;20501;45.956;13.632;2023-04-26T01:19:56;100310.44;;;9.49;76.73
34237;BME280;20501;45.956;13.632;2023-04-26T01:22:22;100316.41;;;9.43;75.40
34237;BME280;20501;45.956;13.632;2023-04-26T01:24:49;100307.06;;;8.96;76.48
34237;BME280;20501;45.956;13.632;2023-04-26T01:27:15;100310.53;;;9.18;74.04
34237;BME280;20501;45.956;13.632;2023-04-26T01:29:41;100318.59;;;8.77;74.89
34237;BME280;20501;45.956;13.632;2023-04-26T01:32:07;100317.97;;;11.19;74.38
34237;BME280;20501;45.956;13.632;2023-04-26T01:34:33;100310.59;;;9.48;74.32
34237;BME280;20501;45.956;13.632;2023-04-26T01:36:59;100306.34;;;12.53;68.62
34237;BME280;20501;45.956;13.632;2023-04-26T01:39:25;100300.84;;;13.41;65.11
34237;BME280;20501;45.956;13.632;2023-04-26T01:41:52;100301.75;;;12.46;67.85
34237;BME280;20501;45.956;13.632;2023-04-26T01:44:17;100299.84;;;13.07;66.17
34237;BME280;20501;45.956;13.632;2023-04-26T01:46:43;100303.44;;;13.59;64.31
34237;BME280;20501;45.956;13.632;2023-04-26T01:49:09;100301.72;;;13.07;65.94
34237;BME280;20501;45.956;13.632;2023-04-26T01:51:34;100306.34;;;13.74;63.52
34237;BME280;20501;45.956;13.632;2023-04-26T01:54:00;100304.84;;;12.33;62.65
34237;BME280;20501;45.956;13.632;2023-04-26T01:56:26;100310.06;;;11.54;63.69
34237;BME280;20501;45.956;13.632;2023-04-26T01:58:51;100319.03;;;11.90;69.78
34237;BME280;20501;45.956;13.632;2023-04-26T02:01:17;100324.16;;;12.56;62.63
34237;BME280;20501;45.956;13.632;2023-04-26T02:03:42;100326.16;;;12.28;68.78
34237;BME280;20501;45.956;13.632;2023-04-26T02:06:08;100327.94;;;12.98;66.19
34237;BME280;20501;45.956;13.632;2023-04-26T02:08:33;100329.19;;;12.77;65.10
34237;BME280;20501;45.956;13.632;2023-04-26T02:10:58;100330.16;;;13.37;62.64
34237;BME280;20501;45.956;13.632;2023-04-26T02:13:24;100330.69;;;12.72;66.80
34237;BME280;20501;45.956;13.632;2023-04-26T02:15:50;100334.50;;;13.22;64.91
34237;BME280;20501;45.956;13.632;2023-04-26T02:18:16;100332.09;;;12.49;61.10
34237;BME280;20501;45.956;13.632;2023-04-26T02:20:42;100348.19;;;11.60;65.24
34237;BME280;20501;45.956;13.632;2023-04-26T02:23:09;100340.00;;;12.69;66.55
34237;BME280;20501;45.956;13.632;2023-04-26T02:25:35;100343.53;;;12.43;66.42
34237;BME280;20501;45.956;13.632;2023-04-26T02:28:01;100332.31;;;10.34;67.48
34237;BME280;20501;45.956;13.632;2023-04-26T02:30:27;100342.88;;;11.87;70.12
34237;BME280;20501;45.956;13.632;2023-04-26T02:32:53;100344.75;;;10.84;73.38
34237;BME280;20501;45.956;13.632;2023-04-26T02:35:19;100341.72;;;9.91;68.47
34237;BME280;20501;45.956;13.632;2023-04-26T02:37:44;100336.03;;;9.74;69.19
34237;BME280;20501;45.956;13.632;2023-04-26T02:40:13;100345.97;;;11.74;64.07
34237;BME280;20501;45.956;13.632;2023-04-26T02:42:38;100341.69;;;12.44;68.02
34237;BME280;20501;45.956;13.632;2023-04-26T02:45:04;100346.81;;;9.74;70.59
34237;BME280;20501;45.956;13.632;2023-04-26T02:47:31;100344.28;;;11.45;65.31
34237;BME280;20501;45.956;13.632;2023-04-26T02:49:57;100347.25;;;10.58;73.00
34237;BME280;20501;45.956;13.632;2023-04-26T02:52:22;100337.06;;;9.23;70.50
34237;BME280;20501;45.956;13.632;2023-04-26T02:54:47;100348.78;;;8.50;73.26
34237;BME280;20501;45.956;13.632;2023-04-26T02:57:13;100353.19;;;7.97;75.16
34237;BME280;20501;45.956;13.632;2023-04-26T02:59:38;100355.09;;;10.02;76.33
34237;BME280;20501;45.956;13.632;2023-04-26T03:02:04;100360.88;;;10.27;69.68
34237;BME280;20501;45.956;13.632;2023-04-26T03:04:32;100368.75;;;7.94;76.18
34237;BME280;20501;45.956;13.632;2023-04-26T03:06:58;100366.28;;;10.07;75.41
34237;BME280;20501;45.956;13.632;2023-04-26T03:09:23;100358.22;;;9.98;68.79
34237;BME280;20501;45.956;13.632;2023-04-26T03:11:49;100364.41;;;12.06;68.07
34237;BME280;20501;45.956;13.632;2023-04-26T03:14:14;100360.56;;;11.63;68.27
34237;BME280;20501;45.956;13.632;2023-04-26T03:16:41;100364.88;;;11.00;65.50
34237;BME280;20501;45.956;13.632;2023-04-26T03:19:07;100373.41;;;10.18;69.46
34237;BME280;20501;45.956;13.632;2023-04-26T03:21:32;100368.00;;;10.09;74.05
34237;BME280;20501;45.956;13.632;2023-04-26T03:23:58;100364.00;;;10.52;66.69
34237;BME280;20501;45.956;13.632;2023-04-26T03:26:23;100375.16;;;11.24;70.99
34237;BME280;20501;45.956;13.632;2023-04-26T03:28:48;100366.94;;;12.26;64.80
34237;BME280;20501;45.956;13.632;2023-04-26T03:31:14;100369.84;;;12.51;66.31
34237;BME280;20501;45.956;13.632;2023-04-26T03:33:39;100370.75;;;12.60;63.31
34237;BME280;20501;45.956;13.632;2023-04-26T03:36:05;100371.03;;;11.48;64.28
34237;BME280;20501;45.956;13.632;2023-04-26T03:38:31;100374.41;;;10.94;68.24
34237;BME280;20501;45.956;13.632;2023-04-26T03:40:56;100370.28;;;10.13;67.36
34237;BME280;20501;45.956;13.632;2023-04-26T03:43:22;100376.09;;;11.79;68.93
34237;BME280;20501;45.956;13.632;2023-04-26T03:45:48;100375.91;;;10.79;68.42
34237;BME280;20501;45.956;13.632;2023-04-26T03:48:13;100378.41;;;12.91;64.85
34237;BME280;20501;45.956;13.632;2023-04-26T03:50:39;100389.94;;;12.04;61.14
34237;BME280;20501;45.956;13.632;2023-04-26T03:53:04;100382.06;;;12.11;61.81
34237;BME280;20501;45.956;13.632;2023-04-26T03:55:29;100382.81;;;12.03;66.53
34237;BME280;20501;45.956;13.632;2023-04-26T03:57:55;100383.28;;;11.52;65.25
34237;BME280;20501;45.956;13.632;2023-04-26T04:00:20;100380.59;;;9.69;67.27
34237;BME280;20501;45.956;13.632;2023-04-26T04:02:46;100379.31;;;8.60;73.77
34237;BME280;20501;45.956;13.632;2023-04-26T04:05:11;100376.06;;;8.45;72.51
34237;BME280;20501;45.956;13.632;2023-04-26T04:07:37;100385.91;;;8.67;73.04
34237;BME280;20501;45.956;13.632;2023-04-26T04:10:02;100384.88;;;9.71;71.12
34237;BME280;20501;45.956;13.632;2023-04-26T04:12:28;100378.44;;;11.28;69.73
34237;BME280;20501;45.956;13.632;2023-04-26T04:14:53;100382.28;;;12.17;66.76
34237;BME280;20501;45.956;13.632;2023-04-26T04:17:19;100376.44;;;12.48;60.71
34237;BME280;20501;45.956;13.632;2023-04-26T04:19:44;100381.88;;;12.12;63.59
34237;BME280;20501;45.956;13.632;2023-04-26T04:22:10;100382.91;;;11.65;65.34
34237;BME280;20501;45.956;13.632;2023-04-26T04:24:36;100388.22;;;12.39;64.37
34237;BME280;20501;45.956;13.632;2023-04-26T04:27:02;100384.09;;;12.53;62.82
34237;BME280;20501;45.956;13.632;2023-04-26T04:29:28;100380.81;;;13.28;62.57
34237;BME280;20501;45.956;13.632;2023-04-26T04:31:54;100385.38;;;12.67;63.88
34237;BME280;20501;45.956;13.632;2023-04-26T04:34:19;100384.09;;;13.40;62.04
34237;BME280;20501;45.956;13.632;2023-04-26T04:36:45;100383.94;;;12.36;65.28
34237;BME280;20501;45.956;13.632;2023-04-26T04:39:10;100384.66;;;12.38;65.48
34237;BME280;20501;45.956;13.632;2023-04-26T04:41:41;100388.38;;;12.64;62.67
34237;BME280;20501;45.956;13.632;2023-04-26T04:44:16;100386.50;;;12.82;64.06
34237;BME280;20501;45.956;13.632;2023-04-26T04:46:42;100391.44;;;10.18;72.35
34237;BME280;20501;45.956;13.632;2023-04-26T04:49:08;100390.09;;;10.91;68.50
34237;BME280;20501;45.956;13.632;2023-04-26T04:51:34;100398.91;;;12.67;64.83
34237;BME280;20501;45.956;13.632;2023-04-26T04:54:08;100404.25;;;13.03;63.45
34237;BME280;20501;45.956;13.632;2023-04-26T04:56:34;100409.81;;;12.13;62.76
34237;BME280;20501;45.956;13.632;2023-04-26T04:58:59;100401.53;;;13.03;63.08
34237;BME280;20501;45.956;13.632;2023-04-26T05:01:24;100414.47;;;12.02;65.88
34237;BME280;20501;45.956;13.632;2023-04-26T05:03:50;100417.66;;;11.32;69.21
34237;BME280;20501;45.956;13.632;2023-04-26T05:06:15;100420.72;;;10.13;67.36
34237;BME280;20501;45.956;13.632;2023-04-26T05:08:41;100431.00;;;8.75;69.24
34237;BME280;20501;45.956;13.632;2023-04-26T05:11:06;100431.53;;;9.62;69.95
34237;BME280;20501;45.956;13.632;2023-04-26T05:13:32;100432.28;;;11.39;68.07
34237;BME280;20501;45.956;13.632;2023-04-26T05:15:57;100440.00;;;12.54;64.24
34237;BME280;20501;45.956;13.632;2023-04-26T05:18:23;100441.78;;;13.16;62.33
34237;BME280;20501;45.956;13.632;2023-04-26T05:20:48;100446.19;;;13.43;61.37
34237;BME280;20501;45.956;13.632;2023-04-26T05:23:13;100446.38;;;13.15;62.33
34237;BME280;20501;45.956;13.632;2023-04-26T05:25:39;100459.94;;;12.71;60.59
34237;BME280;20501;45.956;13.632;2023-04-26T05:28:04;100471.09;;;12.68;63.02
34237;BME280;20501;45.956;13.632;2023-04-26T05:30:32;100464.56;;;12.06;65.60
34237;BME280;20501;45.956;13.632;2023-04-26T05:32:57;100460.34;;;11.01;66.42
34237;BME280;20501;45.956;13.632;2023-04-26T05:35:23;100460.81;;;10.57;64.34
34237;BME280;20501;45.956;13.632;2023-04-26T05:37:48;100461.97;;;12.15;65.22
34237;BME280;20501;45.956;13.632;2023-04-26T05:40:13;100465.84;;;12.48;63.88
34237;BME280;20501;45.956;13.632;2023-04-26T05:42:39;100468.28;;;13.22;61.92
34237;BME280;20501;45.956;13.632;2023-04-26T05:45:05;100465.00;;;12.92;61.42
34237;BME280;20501;45.956;13.632;2023-04-26T05:47:31;100461.84;;;13.50;61.03
34237;BME280;20501;45.956;13.632;2023-04-26T05:49:56;100476.97;;;13.60;60.80
34237;BME280;20501;45.956;13.632;2023-04-26T05:52:21;100469.09;;;13.84;60.26
34237;BME280;20501;45.956;13.632;2023-04-26T05:54:47;100468.09;;;13.50;57.31
34237;BME280;20501;45.956;13.632;2023-04-26T05:57:12;100476.16;;;11.33;66.95
34237;BME280;20501;45.956;13.632;2023-04-26T05:59:38;100479.25;;;12.94;62.09
34237;BME280;20501;45.956;13.632;2023-04-26T06:02:04;100468.34;;;13.65;60.73
34237;BME280;20501;45.956;13.632;2023-04-26T06:04:29;100479.75;;;13.42;61.50
34237;BME280;20501;45.956;13.632;2023-04-26T06:06:54;100474.22;;;13.26;57.35
34237;BME280;20501;45.956;13.632;2023-04-26T06:09:20;100480.50;;;13.53;58.72
34237;BME280;20501;45.956;13.632;2023-04-26T06:11:45;100491.88;;;12.85;61.04
34237;BME280;20501;45.956;13.632;2023-04-26T06:14:11;100484.31;;;11.61;61.54
34237;BME280;20501;45.956;13.632;2023-04-26T06:16:36;100491.63;;;11.51;63.75
34237;BME280;20501;45.956;13.632;2023-04-26T06:19:02;100483.13;;;10.78;63.66
34237;BME280;20501;45.956;13.632;2023-04-26T06:21:27;100483.13;;;11.36;67.07
34237;BME280;20501;45.956;13.632;2023-04-26T06:23:52;100486.59;;;11.18;67.13
34237;BME280;20501;45.956;13.632;2023-04-26T06:26:18;100493.63;;;10.32;64.49
34237;BME280;20501;45.956;13.632;2023-04-26T06:28:43;100482.56;;;10.65;63.30
34237;BME280;20501;45.956;13.632;2023-04-26T06:31:09;100490.22;;;10.89;66.51
34237;BME280;20501;45.956;13.632;2023-04-26T06:33:34;100491.22;;;11.73;63.18
34237;BME280;20501;45.956;13.632;2023-04-26T06:35:59;100489.31;;;11.28;62.36
34237;BME280;20501;45.956;13.632;2023-04-26T06:38:25;100494.44;;;11.11;62.58
34237;BME280;20501;45.956;13.632;2023-04-26T06:40:50;100496.00;;;11.24;65.88
34237;BME280;20501;45.956;13.632;2023-04-26T06:43:16;100499.66;;;12.44;63.29
34237;BME280;20501;45.956;13.632;2023-04-26T06:45:42;100500.69;;;11.59;63.66
34237;BME280;20501;45.956;13.632;2023-04-26T06:48:07;100502.88;;;10.89;63.44
34237;BME280;20501;45.956;13.632;2023-04-26T06:50:36;100507.06;;;11.30;61.70
34237;BME280;20501;45.956;13.632;2023-04-26T06:53:03;100500.59;;;11.51;61.86
34237;BME280;20501;45.956;13.632;2023-04-26T06:55:28;100502.81;;;11.66;61.36
34237;BME280;20501;45.956;13.632;2023-04-26T06:57:53;100495.94;;;12.27;59.59
34237;BME280;20501;45.956;13.632;2023-04-26T07:00:19;100499.63;;;12.98;59.95
34237;BME280;20501;45.956;13.632;2023-04-26T07:02:45;100506.44;;;13.29;55.99
34237;BME280;20501;45.956;13.632;2023-04-26T07:05:10;100499.66;;;12.44;57.97
34237;BME280;20501;45.956;13.632;2023-04-26T07:07:36;100502.91;;;12.66;61.88
34237;BME280;20501;45.956;13.632;2023-04-26T07:10:02;100494.72;;;12.58;55.41
34237;BME280;20501;45.956;13.632;2023-04-26T07:12:27;100498.16;;;13.30;61.25
34237;BME280;20501;45.956;13.632;2023-04-26T07:14:53;100500.72;;;14.01;59.52
34237;BME280;20501;45.956;13.632;2023-04-26T07:17:18;100492.81;;;13.73;55.68
34237;BME280;20501;45.956;13.632;2023-04-26T07:19:44;100496.63;;;13.54;58.88
34237;BME280;20501;45.956;13.632;2023-04-26T07:22:09;100498.47;;;13.01;55.86
34237;BME280;20501;45.956;13.632;2023-04-26T07:24:35;100498.91;;;13.14;61.31
34237;BME280;20501;45.956;13.632;2023-04-26T07:27:00;100499.03;;;13.13;57.90
34237;BME280;20501;45.956;13.632;2023-04-26T07:29:26;100497.56;;;12.74;56.01
34237;BME280;20501;45.956;13.632;2023-04-26T07:31:51;100498.69;;;13.60;56.19
34237;BME280;20501;45.956;13.632;2023-04-26T07:34:17;100498.03;;;14.09;58.88
34237;BME280;20501;45.956;13.632;2023-04-26T07:36:43;100487.25;;;13.83;58.17
34237;BME280;20501;45.956;13.632;2023-04-26T07:39:09;100498.13;;;13.49;55.53
34237;BME280;20501;45.956;13.632;2023-04-26T07:41:34;100497.38;;;13.65;56.27
34237;BME280;20501;45.956;13.632;2023-04-26T07:44:00;100502.75;;;13.99;55.23
34237;BME280;20501;45.956;13.632;2023-04-26T07:46:25;100498.94;;;13.84;51.87
34237;BME280;20501;45.956;13.632;2023-04-26T07:48:51;100501.31;;;14.30;53.45
34237;BME280;20501;45.956;13.632;2023-04-26T07:51:16;100506.44;;;14.41;56.99
34237;BME280;20501;45.956;13.632;2023-04-26T07:53:42;100508.78;;;14.36;54.57
34237;BME280;20501;45.956;13.632;2023-04-26T07:56:08;100503.19;;;14.37;54.30
34237;BME280;20501;45.956;13.632;2023-04-26T07:58:34;100511.31;;;14.29;51.77
34237;BME280;20501;45.956;13.632;2023-04-26T08:01:00;100509.16;;;14.49;51.17
34237;BME280;20501;45.956;13.632;2023-04-26T08:03:26;100518.50;;;14.55;50.08
34237;BME280;20501;45.956;13.632;2023-04-26T08:05:52;100512.22;;;14.46;50.20
34237;BME280;20501;45.956;13.632;2023-04-26T08:08:18;100514.09;;;14.46;51.36
34237;BME280;20501;45.956;13.632;2023-04-26T08:10:43;100512.06;;;14.56;48.50
34237;BME280;20501;45.956;13.632;2023-04-26T08:13:09;100523.16;;;14.71;53.17
34237;BME280;20501;45.956;13.632;2023-04-26T08:15:34;100521.97;;;14.74;47.84
34237;BME280;20501;45.956;13.632;2023-04-26T08:18:00;100515.13;;;14.61;53.93
34237;BME280;20501;45.956;13.632;2023-04-26T08:20:26;100520.50;;;14.28;47.78
34237;BME280;20501;45.956;13.632;2023-04-26T08:22:55;100519.06;;;14.07;49.63
34237;BME280;20501;45.956;13.632;2023-04-26T08:25:22;100516.25;;;14.34;47.99
34237;BME280;20501;45.956;13.632;2023-04-26T08:27:47;100515.94;;;14.37;48.97
34237;BME280;20501;45.956;13.632;2023-04-26T08:30:13;100520.03;;;14.58;44.10
34237;BME280;20501;45.956;13.632;2023-04-26T08:32:38;100522.06;;;14.64;43.09
34237;BME280;20501;45.956;13.632;2023-04-26T08:35:05;100518.41;;;14.73;45.29
34237;BME280;20501;45.956;13.632;2023-04-26T08:37:30;100529.09;;;14.75;43.69
34237;BME280;20501;45.956;13.632;2023-04-26T08:39:56;100529.78;;;14.85;46.34
34237;BME280;20501;45.956;13.632;2023-04-26T08:42:25;100530.81;;;14.76;49.17
34237;BME280;20501;45.956;13.632;2023-04-26T08:44:52;100533.50;;;14.92;48.86
34237;BME280;20501;45.956;13.632;2023-04-26T08:49:57;100535.03;;;14.78;45.19
34237;BME280;20501;45.956;13.632;2023-04-26T08:52:29;100539.13;;;14.82;49.52
34237;BME280;20501;45.956;13.632;2023-04-26T08:54:56;100531.09;;;14.64;48.85
34237;BME280;20501;45.956;13.632;2023-04-26T08:57:26;100535.38;;;14.67;49.79
34237;BME280;20501;45.956;13.632;2023-04-26T08:59:51;100535.91;;;14.95;51.98
34237;BME280;20501;45.956;13.632;2023-04-26T09:02:21;100537.03;;;14.51;47.04
34237;BME280;20501;45.956;13.632;2023-04-26T09:04:48;100538.28;;;14.74;50.87
34237;BME280;20501;45.956;13.632;2023-04-26T09:07:30;100531.13;;;14.73;48.18
34237;BME280;20501;45.956;13.632;2023-04-26T09:09:57;100526.31;;;14.58;45.49
34237;BME280;20501;45.956;13.632;2023-04-26T09:12:23;100532.28;;;14.62;46.68
34237;BME280;20501;45.956;13.632;2023-04-26T09:14:49;100532.81;;;14.65;46.96
34237;BME280;20501;45.956;13.632;2023-04-26T09:17:28;100530.28;;;14.80;47.23
34237;BME280;20501;45.956;13.632;2023-04-26T09:19:58;100530.28;;;14.89;46.53
34237;BME280;20501;45.956;13.632;2023-04-26T09:22:34;100535.91;;;14.87;47.69
34237;BME280;20501;45.956;13.632;2023-04-26T09:25:02;100540.00;;;15.08;48.66
34237;BME280;20501;45.956;13.632;2023-04-26T09:27:38;100534.88;;;15.05;47.35
34237;BME280;20501;45.956;13.632;2023-04-26T09:30:15;100527.25;;;14.83;48.25
34237;BME280;20501;45.956;13.632;2023-04-26T09:32:58;100532.16;;;14.96;47.76
34237;BME280;20501;45.956;13.632;2023-04-26T09:35:38;100525.38;;;15.00;47.45
34237;BME280;20501;45.956;13.632;2023-04-26T09:38:11;100526.56;;;15.14;48.88
34237;BME280;20501;45.956;13.632;2023-04-26T09:43:08;100522.78;;;15.32;47.82
34237;BME280;20501;45.956;13.632;2023-04-26T09:46:00;100529.75;;;15.43;50.16
34237;BME280;20501;45.956;13.632;2023-04-26T09:48:30;100513.13;;;15.21;46.29
34237;BME280;20501;45.956;13.632;2023-04-26T09:51:08;100517.84;;;15.36;46.63
34237;BME280;20501;45.956;13.632;2023-04-26T09:53:35;100515.88;;;15.69;45.92
34237;BME280;20501;45.956;13.632;2023-04-26T09:58:54;100512.00;;;15.55;44.22
34237;BME280;20501;45.956;13.632;2023-04-26T10:01:23;100505.16;;;15.68;44.33
34237;BME280;20501;45.956;13.632;2023-04-26T10:03:48;100518.13;;;15.57;46.71
34237;BME280;20501;45.956;13.632;2023-04-26T10:06:14;100514.19;;;15.68;45.72
34237;BME280;20501;45.956;13.632;2023-04-26T10:08:40;100512.28;;;15.85;45.08
34237;BME280;20501;45.956;13.632;2023-04-26T10:11:06;100507.91;;;15.59;45.50
34237;BME280;20501;45.956;13.632;2023-04-26T10:13:34;100505.28;;;15.91;43.85
34237;BME280;20501;45.956;13.632;2023-04-26T10:16:00;100510.50;;;16.01;45.57
34237;BME280;20501;45.956;13.632;2023-04-26T10:18:26;100514.22;;;16.08;42.85
34237;BME280;20501;45.956;13.632;2023-04-26T10:20:55;100497.81;;;15.76;42.34
34237;BME280;20501;45.956;13.632;2023-04-26T10:23:23;100507.63;;;16.02;45.87
34237;BME280;20501;45.956;13.632;2023-04-26T10:25:52;100505.38;;;16.06;42.39
34237;BME280;20501;45.956;13.632;2023-04-26T10:31:09;100501.41;;;15.69;43.58
34237;BME280;20501;45.956;13.632;2023-04-26T10:33:35;100498.63;;;15.93;40.86
34237;BME280;20501;45.956;13.632;2023-04-26T10:36:11;100501.94;;;16.12;40.98
34237;BME280;20501;45.956;13.632;2023-04-26T10:38:39;100501.94;;;16.12;42.95
34237;BME280;20501;45.956;13.632;2023-04-26T10:41:32;100502.75;;;15.73;43.94
34237;BME280;20501;45.956;13.632;2023-04-26T10:44:00;100501.69;;;15.90;41.60
34237;BME280;20501;45.956;13.632;2023-04-26T10:46:49;100498.63;;;15.93;43.42
34237;BME280;20501;45.956;13.632;2023-04-26T10:49:17;100502.19;;;16.25;42.73
34237;BME280;20501;45.956;13.632;2023-04-26T10:54:46;100502.94;;;16.11;42.75
34237;BME280;20501;45.956;13.632;2023-04-26T10:57:13;100510.25;;;16.19;42.84
34237;BME280;20501;45.956;13.632;2023-04-26T10:59:38;100503.56;;;16.21;42.38
34237;BME280;20501;45.956;13.632;2023-04-26T11:02:04;100491.56;;;16.39;40.09
34237;BME280;20501;45.956;13.632;2023-04-26T11:04:51;100495.59;;;16.43;43.42
34237;BME280;20501;45.956;13.632;2023-04-26T11:07:35;100492.84;;;16.51;41.20
34237;BME280;20501;45.956;13.632;2023-04-26T11:10:07;100490.75;;;16.53;40.69
34237;BME280;20501;45.956;13.632;2023-04-26T11:12:34;100496.09;;;16.47;40.44
34237;BME280;20501;45.956;13.632;2023-04-26T11:15:00;100495.56;;;16.51;42.19
34237;BME280;20501;45.956;13.632;2023-04-26T11:17:26;100487.34;;;16.28;42.44
34237;BME280;20501;45.956;13.632;2023-04-26T11:19:51;100487.28;;;16.45;40.23
34237;BME280;20501;45.956;13.632;2023-04-26T11:22:20;100487.34;;;16.28;42.22
34237;BME280;20501;45.956;13.632;2023-04-26T11:24:46;100488.88;;;16.31;41.40
34237;BME280;20501;45.956;13.632;2023-04-26T11:27:11;100487.56;;;16.73;41.44
34237;BME280;20501;45.956;13.632;2023-04-26T11:29:37;100473.72;;;16.28;41.89
34237;BME280;20501;45.956;13.632;2023-04-26T11:32:03;100483.84;;;16.19;44.00
34237;BME280;20501;45.956;13.632;2023-04-26T11:36:58;100477.53;;;16.19;40.85
34237;BME280;20501;45.956;13.632;2023-04-26T11:39:23;100480.84;;;16.06;42.23
34237;BME280;20501;45.956;13.632;2023-04-26T11:41:49;100479.56;;;15.93;39.92
34237;BME280;20501;45.956;13.632;2023-04-26T11:44:18;100482.97;;;15.96;40.40
34237;BME280;20501;45.956;13.632;2023-04-26T11:46:48;100473.25;;;15.93;40.86
34237;BME280;20501;45.956;13.632;2023-04-26T11:49:14;100488.06;;;15.90;43.02
34237;BME280;20501;45.956;13.632;2023-04-26T11:51:40;100481.13;;;15.88;41.24
34237;BME280;20501;45.956;13.632;2023-04-26T11:54:06;100483.78;;;15.96;41.04
34237;BME280;20501;45.956;13.632;2023-04-26T11:56:32;100482.28;;;15.93;41.48
34237;BME280;20501;45.956;13.632;2023-04-26T11:58:57;100486.22;;;15.91;41.94
34237;BME280;20501;45.956;13.632;2023-04-26T12:01:25;100488.59;;;15.86;41.11
34237;BME280;20501;45.956;13.632;2023-04-26T12:03:53;100483.34;;;15.76;42.59
34237;BME280;20501;45.956;13.632;2023-04-26T12:06:20;100487.25;;;15.90;43.01
34237;BME280;20501;45.956;13.632;2023-04-26T12:08:50;100482.97;;;15.79;42.60
34237;BME280;20501;45.956;13.632;2023-04-26T12:11:16;100486.97;;;15.68;43.18
34237;BME280;20501;45.956;13.632;2023-04-26T12:13:42;100485.78;;;15.62;43.92
34237;BME280;20501;45.956;13.632;2023-04-26T12:16:08;100481.28;;;15.78;42.09
34237;BME280;20501;45.956;13.632;2023-04-26T12:18:33;100479.91;;;15.82;42.96
34237;BME280;20501;45.956;13.632;2023-04-26T12:21:00;100474.44;;;15.90;42.81
34237;BME280;20501;45.956;13.632;2023-04-26T12:23:26;100479.06;;;15.90;44.48
34237;BME280;20501;45.956;13.632;2023-04-26T12:25:53;100479.44;;;15.78;47.70
34237;BME280;20501;45.956;13.632;2023-04-26T12:28:20;100482.63;;;15.90;43.61
34237;BME280;20501;45.956;13.632;2023-04-26T12:30:45;100480.38;;;16.02;43.07
34237;BME280;20501;45.956;13.632;2023-04-26T12:33:11;100480.47;;;16.09;43.31
34237;BME280;20501;45.956;13.632;2023-04-26T12:35:37;100479.50;;;16.02;43.35
34237;BME280;20501;45.956;13.632;2023-04-26T12:38:02;100469.00;;;15.90;42.88
34237;BME280;20501;45.956;13.632;2023-04-26T12:40:29;100472.41;;;15.92;43.96
34237;BME280;20501;45.956;13.632;2023-04-26T12:42:56;100471.03;;;15.97;46.16
34237;BME280;20501;45.956;13.632;2023-04-26T12:45:22;100471.19;;;16.03;46.44
34237;BME280;20501;45.956;13.632;2023-04-26T12:47:48;100478.03;;;16.22;45.51
34237;BME280;20501;45.956;13.632;2023-04-26T12:50:14;100471.25;;;16.18;45.56
34237;BME280;20501;45.956;13.632;2023-04-26T12:52:41;100472.16;;;16.11;45.34
34237;BME280;20501;45.956;13.632;2023-04-26T12:55:12;100464.66;;;16.04;45.86